createdAt,value
2023-04-09T00:01:34.341Z,101782.78
2023-04-09T00:04:00.936Z,101815.09
2023-04-09T00:06:27.550Z,101818.63
2023-04-09T00:08:54.052Z,101829.13
2023-04-09T00:11:21.540Z,101808.25
2023-04-09T00:13:47.974Z,101707.22
2023-04-09T00:16:14.811Z,101703.72
2023-04-09T00:18:41.655Z,101819.50
2023-04-09T00:21:08.737Z,101755.91
2023-04-09T00:23:35.951Z,101829.94
2023-04-09T00:26:02.490Z,101808.16
2023-04-09T00:28:28.845Z,101814.28
2023-04-09T00:30:55.315Z,101750.72
2023-04-09T00:33:21.657Z,101820.44
2023-04-09T00:35:48.101Z,101714.19
2023-04-09T00:38:14.556Z,101797.75
2023-04-09T00:40:40.974Z,101704.59
2023-04-09T00:43:07.366Z,101731.53
2023-04-09T00:45:34.095Z,101812.53
2023-04-09T00:48:00.850Z,101787.28
2023-04-09T00:50:27.375Z,101796.00
2023-04-09T00:52:53.850Z,101811.72
2023-04-09T00:55:21.415Z,101789.06
2023-04-09T00:57:47.805Z,101796.88
2023-04-09T01:00:14.598Z,101778.63
2023-04-09T01:02:41.436Z,101782.13
2023-04-09T01:05:08.687Z,101804.75
2023-04-09T01:07:42.602Z,101689.84
2023-04-09T01:10:18.140Z,101803.00
2023-04-09T01:13:18.323Z,101803.00
2023-04-09T01:16:00.374Z,101813.47
2023-04-09T01:18:40.579Z,101800.38
2023-04-09T01:21:12.061Z,101780.38
2023-04-09T01:24:19.757Z,101810.00
2023-04-09T01:27:04.843Z,101802.13
2023-04-09T01:29:38.266Z,101771.63
2023-04-09T01:32:07.121Z,101757.69
2023-04-09T01:34:34.823Z,101780.34
2023-04-09T01:37:03.412Z,101801.22
2023-04-09T01:39:30.554Z,101753.34
2023-04-09T01:41:57.939Z,101775.97
2023-04-09T01:44:26.141Z,101789.06
2023-04-09T01:46:54.309Z,101689.84
2023-04-09T01:49:21.980Z,101808.25
2023-04-09T01:51:48.485Z,101673.28
2023-04-09T01:54:16.312Z,101667.19
2023-04-09T01:56:45.217Z,101749.91
2023-04-09T01:59:12.056Z,101793.47
2023-04-09T02:01:46.904Z,101789.09
2023-04-09T02:04:23.365Z,101763.84
2023-04-09T02:07:10.135Z,101762.09
2023-04-09T02:09:40.332Z,101670.69
2023-04-09T02:12:12.480Z,101730.78
2023-04-09T02:14:40.215Z,101761.25
2023-04-09T02:17:06.644Z,101688.06
2023-04-09T02:19:46.949Z,101772.53
2023-04-09T02:22:14.323Z,101785.59
2023-04-09T02:24:41.321Z,101721.16
2023-04-09T02:27:08.549Z,101771.63
2023-04-09T02:29:35.009Z,101721.19
2023-04-09T02:32:01.530Z,101763.00
2023-04-09T02:34:28.224Z,101675.88
2023-04-09T02:36:54.604Z,101736.00
2023-04-09T02:39:20.934Z,101729.88
2023-04-09T02:41:47.370Z,101674.19
2023-04-09T02:44:13.754Z,101700.28
2023-04-09T02:46:41.460Z,101765.63
2023-04-09T02:49:08.070Z,101671.56
2023-04-09T02:51:35.819Z,101721.19
2023-04-09T02:54:03.417Z,101755.13
2023-04-09T02:56:29.817Z,101759.50
2023-04-09T02:58:56.225Z,101686.31
2023-04-09T03:01:22.712Z,101719.41
2023-04-09T03:03:49.239Z,101765.59
2023-04-09T03:06:15.863Z,101639.25
2023-04-09T03:08:42.178Z,101746.38
2023-04-09T03:11:08.532Z,101654.06
2023-04-09T03:13:34.964Z,101630.53
2023-04-09T03:16:01.423Z,101718.50
2023-04-09T03:18:27.798Z,101715.84
2023-04-09T03:20:54.172Z,101710.59
2023-04-09T03:23:20.564Z,101737.59
2023-04-09T03:25:46.993Z,101650.50
2023-04-09T03:28:13.316Z,101687.97
2023-04-09T03:30:39.678Z,101700.19
2023-04-09T03:33:06.042Z,101638.34
2023-04-09T03:35:32.532Z,101641.84
2023-04-09T03:37:58.895Z,101662.72
2023-04-09T03:40:25.496Z,101731.56
2023-04-09T03:42:51.896Z,101690.63
2023-04-09T03:45:18.238Z,101602.66
2023-04-09T03:47:44.700Z,101721.13
2023-04-09T03:50:11.319Z,101679.31
2023-04-09T03:52:37.657Z,101726.38
2023-04-09T03:55:04.947Z,101724.63
2023-04-09T03:57:31.289Z,101602.72
2023-04-09T03:59:57.637Z,101715.88
2023-04-09T04:02:26.805Z,101720.22
2023-04-09T04:04:53.489Z,101724.56
2023-04-09T04:07:19.808Z,101726.34
2023-04-09T04:09:46.218Z,101686.22
2023-04-09T04:12:12.631Z,101748.94
2023-04-09T04:14:38.948Z,101736.72
2023-04-09T04:17:05.629Z,101732.34
2023-04-09T04:19:32.018Z,101724.44
2023-04-09T04:21:58.362Z,101740.06
2023-04-09T04:24:24.750Z,101659.81
2023-04-09T04:26:51.136Z,101719.09
2023-04-09T04:29:17.897Z,101740.91
2023-04-09T04:31:44.254Z,101758.31
2023-04-09T04:34:10.638Z,101734.75
2023-04-09T04:36:37.766Z,101726.84
2023-04-09T04:39:04.149Z,101682.31
2023-04-09T04:41:30.651Z,101722.31
2023-04-09T04:43:57.246Z,101659.50
2023-04-09T04:46:23.647Z,101749.28
2023-04-09T04:48:50.257Z,101746.72
2023-04-09T04:51:16.827Z,101763.34
2023-04-09T04:53:43.182Z,101741.56
2023-04-09T04:56:16.068Z,101775.50
2023-04-09T04:58:42.855Z,101661.22
2023-04-09T05:01:09.306Z,101724.13
2023-04-09T05:03:35.998Z,101742.38
2023-04-09T05:06:02.919Z,101730.34
2023-04-09T05:08:29.396Z,101614.41
2023-04-09T05:10:56.302Z,101766.00
2023-04-09T05:13:23.717Z,101720.69
2023-04-09T05:15:50.086Z,101726.78
2023-04-09T05:18:16.473Z,101739.84
2023-04-09T05:20:42.899Z,101749.31
2023-04-09T05:23:12.473Z,101685.66
2023-04-09T05:25:39.370Z,101762.38
2023-04-09T05:28:06.197Z,101742.22
2023-04-09T05:30:32.567Z,101748.31
2023-04-09T05:32:59.064Z,101622.78
2023-04-09T05:35:25.444Z,101749.19
2023-04-09T05:37:51.807Z,101716.09
2023-04-09T05:40:18.208Z,101760.47
2023-04-09T05:42:44.581Z,101711.47
2023-04-09T05:45:11.211Z,101701.00
2023-04-09T05:47:37.579Z,101727.06
2023-04-09T05:50:04.482Z,101742.84
2023-04-09T05:52:30.829Z,101634.66
2023-04-09T05:54:57.144Z,101712.38
2023-04-09T05:57:23.488Z,101740.31
2023-04-09T05:59:49.849Z,101731.72
2023-04-09T06:02:16.412Z,101636.72
2023-04-09T06:04:42.915Z,101723.06
2023-04-09T06:07:09.298Z,101689.97
2023-04-09T06:09:35.878Z,101740.59
2023-04-09T06:12:02.479Z,101516.88
2023-04-09T06:14:28.803Z,101721.75
2023-04-09T06:16:55.219Z,101757.56
2023-04-09T06:19:22.124Z,101638.25
2023-04-09T06:21:48.544Z,101708.00
2023-04-09T06:24:14.985Z,101740.25
2023-04-09T06:26:41.440Z,101745.53
2023-04-09T06:29:07.818Z,101748.16
2023-04-09T06:31:34.599Z,101749.88
2023-04-09T06:34:01.101Z,101751.66
2023-04-09T06:36:27.866Z,101614.06
2023-04-09T06:38:54.422Z,101691.53
2023-04-09T06:41:22.209Z,101768.25
2023-04-09T06:43:49.080Z,101763.84
2023-04-09T06:46:17.771Z,101762.13
2023-04-09T06:48:44.675Z,101620.19
2023-04-09T06:51:11.236Z,101691.59
2023-04-09T06:53:38.909Z,101789.13
2023-04-09T06:56:06.176Z,101783.91
2023-04-09T06:58:32.704Z,101780.44
2023-04-09T07:01:00.023Z,101743.84
2023-04-09T07:03:27.931Z,101713.38
2023-04-09T07:05:54.952Z,101729.91
2023-04-09T07:08:22.870Z,101624.56
2023-04-09T07:10:49.436Z,101749.97
2023-04-09T07:13:16.103Z,101718.56
2023-04-09T07:15:42.668Z,101748.19
2023-04-09T07:18:09.456Z,101776.03
2023-04-09T07:20:36.119Z,101738.59
2023-04-09T07:23:02.629Z,101766.47
2023-04-09T07:25:29.081Z,101736.00
2023-04-09T07:27:55.737Z,101757.69
2023-04-09T07:30:22.080Z,101756.81
2023-04-09T07:32:48.583Z,101760.28
2023-04-09T07:35:15.360Z,101679.34
2023-04-09T07:37:41.761Z,101734.16
2023-04-09T07:40:08.814Z,101773.34
2023-04-09T07:42:37.935Z,101748.94
2023-04-09T07:45:04.882Z,101802.06
2023-04-09T07:47:31.826Z,101779.34
2023-04-09T07:49:58.401Z,101754.94
2023-04-09T07:52:24.785Z,101802.84
2023-04-09T07:54:51.132Z,101656.63
2023-04-09T07:57:17.601Z,101672.19
2023-04-09T07:59:43.959Z,101787.91
2023-04-09T08:02:13.401Z,101656.50
2023-04-09T08:04:41.551Z,101798.28
2023-04-09T08:07:08.204Z,101705.13
2023-04-09T08:09:34.528Z,101700.78
2023-04-09T08:12:01.172Z,101774.69
2023-04-09T08:14:27.585Z,101749.44
2023-04-09T08:16:54.085Z,101657.19
2023-04-09T08:19:20.650Z,101772.69
2023-04-09T08:21:48.774Z,101686.53
2023-04-09T08:24:15.620Z,101786.53
2023-04-09T08:26:43.313Z,101777.75
2023-04-09T08:29:12.127Z,101760.34
2023-04-09T08:31:38.620Z,101636.84
2023-04-09T08:34:06.279Z,101789.81
2023-04-09T08:36:34.565Z,101690.56
2023-04-09T08:39:01.879Z,101737.38
2023-04-09T08:41:29.313Z,101755.47
2023-04-09T08:43:58.876Z,101733.69
2023-04-09T08:46:26.361Z,101769.25
2023-04-09T08:48:53.263Z,101686.41
2023-04-09T08:51:22.200Z,101761.19
2023-04-09T08:53:53.350Z,101785.19
2023-04-09T08:56:21.483Z,101771.22
2023-04-09T08:58:48.133Z,101695.63
2023-04-09T09:01:27.231Z,101784.84
2023-04-09T09:03:56.229Z,101777.78
2023-04-09T09:06:24.737Z,101770.56
2023-04-09T09:09:06.782Z,101742.75
2023-04-09T09:11:37.754Z,101709.53
2023-04-09T09:14:06.585Z,101705.75
2023-04-09T09:16:42.607Z,101764.72
2023-04-09T09:19:10.587Z,101640.34
2023-04-09T09:21:36.978Z,101690.66
2023-04-09T09:24:16.887Z,101765.75
2023-04-09T09:26:43.738Z,101765.75
2023-04-09T09:29:10.551Z,101766.66
2023-04-09T09:31:49.131Z,101750.31
2023-04-09T09:34:19.393Z,101751.16
2023-04-09T09:36:47.285Z,101767.00
2023-04-09T09:39:17.159Z,101673.94
2023-04-09T09:41:45.298Z,101744.63
2023-04-09T09:44:13.002Z,101766.88
2023-04-09T09:46:42.371Z,101767.50
2023-04-09T09:49:09.526Z,101711.00
2023-04-09T09:51:39.168Z,101765.28
2023-04-09T09:54:07.627Z,101617.59
2023-04-09T09:56:39.430Z,101741.06
2023-04-09T09:59:23.304Z,101737.03
2023-04-09T10:02:19.496Z,101679.63
2023-04-09T10:04:49.003Z,101716.63
2023-04-09T10:07:16.130Z,101723.19
2023-04-09T10:09:48.720Z,101708.47
2023-04-09T10:12:16.420Z,101734.50
2023-04-09T10:14:43.517Z,101756.50
2023-04-09T10:17:10.413Z,101697.66
2023-04-09T10:19:47.167Z,101728.00
2023-04-09T10:22:21.454Z,101710.34
2023-04-09T10:24:47.982Z,101734.28
2023-04-09T10:27:17.350Z,101728.28
2023-04-09T10:29:46.056Z,101709.59
2023-04-09T10:32:13.444Z,101688.09
2023-04-09T10:34:42.395Z,101686.00
2023-04-09T10:37:10.254Z,101730.25
2023-04-09T10:39:43.661Z,101719.66
2023-04-09T10:42:43.181Z,101732.13
2023-04-09T10:45:11.803Z,101729.66
2023-04-09T10:47:40.037Z,101708.00
2023-04-09T10:50:17.099Z,101592.44
2023-04-09T10:52:44.304Z,101690.28
2023-04-09T10:55:30.518Z,101678.97
2023-04-09T10:57:58.245Z,101662.31
2023-04-09T11:00:24.749Z,101681.56
2023-04-09T11:03:05.718Z,101697.88
2023-04-09T11:05:39.640Z,101680.59
2023-04-09T11:08:11.519Z,101612.34
2023-04-09T11:10:41.965Z,101696.00
2023-04-09T11:13:13.167Z,101624.75
2023-04-09T11:15:39.643Z,101582.03
2023-04-09T11:18:14.001Z,101639.13
2023-04-09T11:20:40.791Z,101606.78
2023-04-09T11:23:07.426Z,101638.00
2023-04-09T11:25:35.003Z,101666.16
2023-04-09T11:28:04.683Z,101656.75
2023-04-09T11:30:31.296Z,101612.50
2023-04-09T11:32:57.780Z,101602.28
2023-04-09T11:35:24.843Z,101651.72
2023-04-09T11:37:52.331Z,101632.03
2023-04-09T11:40:24.009Z,101612.34
2023-04-09T11:42:52.369Z,101624.38
2023-04-09T11:45:21.253Z,101653.31
2023-04-09T11:47:48.881Z,101641.66
2023-04-09T11:50:16.441Z,101655.00
2023-04-09T11:52:44.593Z,101559.56
2023-04-09T11:55:11.957Z,101587.06
2023-04-09T11:57:46.910Z,101644.28
2023-04-09T12:00:15.441Z,101638.84
2023-04-09T12:02:44.484Z,101626.59
2023-04-09T12:05:32.123Z,101649.22
2023-04-09T12:08:07.948Z,101648.34
2023-04-09T12:10:36.815Z,101640.75
2023-04-09T12:13:06.099Z,101611.56
2023-04-09T12:15:37.364Z,101603.47
2023-04-09T12:18:04.231Z,101656.53
2023-04-09T12:20:35.551Z,101632.41
2023-04-09T12:23:03.743Z,101562.00
2023-04-09T12:25:31.672Z,101633.88
2023-04-09T12:27:58.625Z,101561.56
2023-04-09T12:30:25.350Z,101568.47
2023-04-09T12:32:52.794Z,101642.94
2023-04-09T12:35:19.312Z,101620.63
2023-04-09T12:37:45.939Z,101632.25
2023-04-09T12:40:15.039Z,101649.28
2023-04-09T12:42:42.610Z,101651.88
2023-04-09T12:45:10.370Z,101554.44
2023-04-09T12:47:37.628Z,101645.94
2023-04-09T12:50:04.867Z,101603.38
2023-04-09T12:52:31.409Z,101615.19
2023-04-09T12:54:57.828Z,101586.56
2023-04-09T12:57:24.414Z,101597.09
2023-04-09T12:59:50.897Z,101550.69
2023-04-09T13:02:18.718Z,101596.78
2023-04-09T13:04:45.314Z,101608.13
2023-04-09T13:07:12.845Z,101603.13
2023-04-09T13:09:39.252Z,101600.94
2023-04-09T13:12:05.973Z,101607.28
2023-04-09T13:14:32.602Z,101601.66
2023-04-09T13:16:59.142Z,101582.06
2023-04-09T13:19:25.952Z,101585.91
2023-04-09T13:21:52.301Z,101591.84
2023-04-09T13:24:18.698Z,101594.88
2023-04-09T13:26:45.393Z,101612.44
2023-04-09T13:29:12.063Z,101584.84
2023-04-09T13:31:38.429Z,101596.47
2023-04-09T13:34:06.337Z,101559.72
2023-04-09T13:36:32.666Z,101563.03
2023-04-09T13:39:04.299Z,101590.72
2023-04-09T13:41:32.836Z,101589.34
2023-04-09T13:44:00.752Z,101585.97
2023-04-09T13:46:27.875Z,101575.97
2023-04-09T13:48:54.961Z,101594.59
2023-04-09T13:51:22.488Z,101571.47
2023-04-09T13:53:49.625Z,101582.19
2023-04-09T13:56:16.690Z,101583.47
2023-04-09T13:58:43.685Z,101565.31
2023-04-09T14:01:11.228Z,101572.78
2023-04-09T14:03:40.087Z,101409.81
2023-04-09T14:06:08.415Z,101505.22
2023-04-09T14:08:35.592Z,101497.28
2023-04-09T14:11:02.185Z,101544.94
2023-04-09T14:13:29.108Z,101544.19
2023-04-09T14:15:55.580Z,101540.53
2023-04-09T14:18:21.985Z,101478.94
2023-04-09T14:20:48.401Z,101572.25
2023-04-09T14:23:14.850Z,101560.50
2023-04-09T14:25:41.358Z,101568.94
2023-04-09T14:28:07.718Z,101498.44
2023-04-09T14:30:34.073Z,101519.97
2023-04-09T14:33:01.591Z,101567.19
2023-04-09T14:35:28.063Z,101527.22
2023-04-09T14:37:54.986Z,101527.91
2023-04-09T14:40:21.369Z,101507.00
2023-04-09T14:42:48.275Z,101547.91
2023-04-09T14:45:14.638Z,101458.91
2023-04-09T14:47:41.207Z,101483.50
2023-04-09T14:50:08.216Z,101544.97
2023-04-09T14:52:34.538Z,101519.72
2023-04-09T14:55:00.947Z,101508.41
2023-04-09T14:57:27.286Z,101496.88
2023-04-09T14:59:53.685Z,101514.31
2023-04-09T15:02:20.190Z,101506.41
2023-04-09T15:04:46.711Z,101536.28
2023-04-09T15:07:13.227Z,101444.50
2023-04-09T15:09:39.654Z,101505.84
2023-04-09T15:12:06.095Z,101508.38
2023-04-09T15:14:33.450Z,101412.63
2023-04-09T15:16:59.840Z,101512.38
2023-04-09T15:19:26.482Z,101517.25
2023-04-09T15:21:52.872Z,101517.44
2023-04-09T15:24:19.219Z,101506.47
2023-04-09T15:26:45.581Z,101416.75
2023-04-09T15:29:11.967Z,101434.06
2023-04-09T15:31:40.838Z,101489.75
2023-04-09T15:34:08.042Z,101468.72
2023-04-09T15:36:34.371Z,101454.50
2023-04-09T15:39:05.220Z,101522.44
2023-04-09T15:41:32.286Z,101522.19
2023-04-09T15:43:58.661Z,101472.81
2023-04-09T15:46:25.209Z,101486.78
2023-04-09T15:48:51.795Z,101487.44
2023-04-09T15:51:18.382Z,101494.31
2023-04-09T15:53:44.721Z,101494.78
2023-04-09T15:56:15.227Z,101468.81
2023-04-09T15:58:43.023Z,101497.28
2023-04-09T16:01:09.898Z,101484.75
2023-04-09T16:03:42.261Z,101475.66
2023-04-09T16:06:13.162Z,101478.38
2023-04-09T16:08:40.109Z,101416.28
2023-04-09T16:11:08.048Z,101492.28
2023-04-09T16:13:34.384Z,101453.78
2023-04-09T16:16:01.121Z,101443.63
2023-04-09T16:18:27.736Z,101408.44
2023-04-09T16:20:55.348Z,101454.47
2023-04-09T16:23:22.810Z,101486.81
2023-04-09T16:25:49.319Z,101496.53
2023-04-09T16:28:16.835Z,101354.34
2023-04-09T16:30:44.124Z,101417.66
2023-04-09T16:33:10.734Z,101387.09
2023-04-09T16:35:39.462Z,101383.59
2023-04-09T16:38:06.880Z,101405.75
2023-04-09T16:40:33.478Z,101471.94
2023-04-09T16:43:03.081Z,101477.97
2023-04-09T16:45:29.657Z,101399.66
2023-04-09T16:47:56.212Z,101475.91
2023-04-09T16:50:29.270Z,101451.25
2023-04-09T16:52:55.677Z,101461.63
2023-04-09T16:55:22.302Z,101460.59
2023-04-09T16:57:48.674Z,101466.75
2023-04-09T17:00:17.361Z,101485.66
2023-04-09T17:02:45.733Z,101386.34
2023-04-09T17:05:12.411Z,101453.22
2023-04-09T17:07:38.792Z,101460.69
2023-04-09T17:10:05.897Z,101428.34
2023-04-09T17:12:32.390Z,101476.09
2023-04-09T17:14:58.786Z,101487.16
2023-04-09T17:17:25.156Z,101475.88
2023-04-09T17:19:52.005Z,101416.94
2023-04-09T17:22:18.454Z,101383.78
2023-04-09T17:24:44.867Z,101464.44
2023-04-09T17:27:11.397Z,101465.78
2023-04-09T17:29:37.749Z,101410.81
2023-04-09T17:32:04.174Z,101461.06
2023-04-09T17:34:30.615Z,101446.28
2023-04-09T17:36:59.974Z,101443.56
2023-04-09T17:39:29.164Z,101474.22
2023-04-09T17:41:58.019Z,101484.06
2023-04-09T17:44:25.367Z,101428.44
2023-04-09T17:46:52.035Z,101431.81
2023-04-09T17:49:18.448Z,101457.81
2023-04-09T17:51:44.817Z,101460.47
2023-04-09T17:54:11.613Z,101441.41
2023-04-09T17:56:38.909Z,101376.56
2023-04-09T17:59:06.367Z,101388.41
2023-04-09T18:01:32.872Z,101392.69
2023-04-09T18:04:00.719Z,101474.19
2023-04-09T18:06:27.733Z,101433.22
2023-04-09T18:08:54.291Z,101449.00
2023-04-09T18:11:21.031Z,101475.53
2023-04-09T18:13:47.377Z,101474.47
2023-04-09T18:16:13.897Z,101455.47
2023-04-09T18:18:40.523Z,101450.69
2023-04-09T18:21:07.089Z,101454.38
2023-04-09T18:23:33.740Z,101370.81
2023-04-09T18:26:00.221Z,101391.31
2023-04-09T18:28:26.557Z,101440.13
2023-04-09T18:30:54.057Z,101454.25
2023-04-09T18:33:21.047Z,101466.97
2023-04-09T18:35:47.642Z,101472.75
2023-04-09T18:38:14.001Z,101464.59
2023-04-09T18:40:44.229Z,101475.25
2023-04-09T18:43:13.717Z,101431.81
2023-04-09T18:45:40.033Z,101354.13
2023-04-09T18:48:07.942Z,101472.78
2023-04-09T18:50:34.828Z,101421.94
2023-04-09T18:53:03.197Z,101488.03
2023-04-09T18:55:29.591Z,101460.34
2023-04-09T18:57:55.932Z,101412.28
2023-04-09T19:00:22.256Z,101420.97
2023-04-09T19:02:49.720Z,101517.53
2023-04-09T19:05:16.405Z,101486.72
2023-04-09T19:07:43.373Z,101497.28
2023-04-09T19:10:10.271Z,101395.50
2023-04-09T19:12:37.713Z,101392.22
2023-04-09T19:15:04.796Z,101484.13
2023-04-09T19:17:31.869Z,101484.41
2023-04-09T19:19:58.230Z,101446.63
2023-04-09T19:22:24.791Z,101441.59
2023-04-09T19:24:51.405Z,101473.75
2023-04-09T19:27:18.527Z,101482.56
2023-04-09T19:29:46.157Z,101462.06
2023-04-09T19:32:13.291Z,101464.56
2023-04-09T19:34:39.732Z,101360.81
2023-04-09T19:37:06.155Z,101406.94
2023-04-09T19:39:32.576Z,101412.34
2023-04-09T19:41:58.958Z,101449.66
2023-04-09T19:44:25.385Z,101447.41
2023-04-09T19:46:51.747Z,101494.28
2023-04-09T19:49:18.131Z,101405.13
2023-04-09T19:51:44.506Z,101464.78
2023-04-09T19:54:10.950Z,101443.47
2023-04-09T19:56:38.217Z,101485.81
2023-04-09T19:59:04.742Z,101502.81
2023-04-09T20:01:31.379Z,101374.19
2023-04-09T20:03:58.014Z,101508.13
2023-04-09T20:06:24.499Z,101409.78
2023-04-09T20:08:51.231Z,101421.28
2023-04-09T20:11:18.906Z,101498.31
2023-04-09T20:13:47.384Z,101508.31
2023-04-09T20:16:14.817Z,101398.75
2023-04-09T20:18:41.301Z,101483.84
2023-04-09T20:21:08.588Z,101423.59
2023-04-09T20:23:34.968Z,101428.91
2023-04-09T20:26:02.598Z,101480.94
2023-04-09T20:28:29.559Z,101443.31
2023-04-09T20:30:55.958Z,101407.34
2023-04-09T20:33:22.402Z,101491.69
2023-04-09T20:35:50.290Z,101481.22
2023-04-09T20:38:20.321Z,101472.97
2023-04-09T20:40:46.728Z,101440.66
2023-04-09T20:43:13.232Z,101466.16
2023-04-09T20:45:39.672Z,101485.13
2023-04-09T20:48:06.832Z,101352.78
2023-04-09T20:50:33.257Z,101485.69
2023-04-09T20:52:59.656Z,101369.06
2023-04-09T20:55:26.158Z,101438.56
2023-04-09T20:57:55.377Z,101469.97
2023-04-09T21:00:22.639Z,101471.84
2023-04-09T21:02:49.152Z,101473.59
2023-04-09T21:05:22.550Z,101370.03
2023-04-09T21:07:51.079Z,101450.72
2023-04-09T21:10:17.563Z,101475.06
2023-04-09T21:12:44.024Z,101426.75
2023-04-09T21:15:11.056Z,101459.44
2023-04-09T21:17:37.638Z,101379.63
2023-04-09T21:20:04.534Z,101366.28
2023-04-09T21:22:31.325Z,101463.94
2023-04-09T21:24:57.766Z,101427.59
2023-04-09T21:27:24.207Z,101448.44
2023-04-09T21:29:50.623Z,101339.84
2023-04-09T21:32:17.425Z,101439.56
2023-04-09T21:34:43.867Z,101449.88
2023-04-09T21:37:10.273Z,101440.53
2023-04-09T21:39:36.663Z,101416.97
2023-04-09T21:42:03.036Z,101449.25
2023-04-09T21:44:29.436Z,101439.25
2023-04-09T21:46:56.313Z,101438.50
2023-04-09T21:49:22.707Z,101488.75
2023-04-09T21:51:49.034Z,101353.72
2023-04-09T21:54:15.595Z,101370.31
2023-04-09T21:56:41.934Z,101477.56
2023-04-09T21:59:08.300Z,101397.66
2023-04-09T22:01:35.375Z,101395.69
2023-04-09T22:04:02.242Z,101397.38
2023-04-09T22:06:29.494Z,101456.47
2023-04-09T22:08:57.561Z,101361.38
2023-04-09T22:11:29.406Z,101488.59
2023-04-09T22:13:56.742Z,101446.25
2023-04-09T22:16:24.115Z,101498.16
2023-04-09T22:18:51.787Z,101465.13
2023-04-09T22:21:18.367Z,101400.25
2023-04-09T22:23:44.804Z,101368.53
2023-04-09T22:26:11.183Z,101462.06
2023-04-09T22:28:38.318Z,101377.56
2023-04-09T22:31:05.171Z,101487.72
2023-04-09T22:33:31.720Z,101416.19
2023-04-09T22:35:59.212Z,101496.28
2023-04-09T22:38:26.043Z,101503.28
2023-04-09T22:40:52.497Z,101485.66
2023-04-09T22:43:19.476Z,101485.16
2023-04-09T22:45:54.174Z,101300.78
2023-04-09T22:48:21.773Z,101513.84
2023-04-09T22:50:49.341Z,101514.81
2023-04-09T22:53:18.892Z,101523.25
2023-04-09T22:55:47.426Z,101470.41
2023-04-09T22:58:13.889Z,101461.13
2023-04-09T23:00:40.388Z,101515.59
2023-04-09T23:03:06.984Z,101481.94
2023-04-09T23:05:33.687Z,101475.91
2023-04-09T23:08:00.186Z,101469.31
2023-04-09T23:10:26.572Z,101451.88
2023-04-09T23:12:52.905Z,101500.56
2023-04-09T23:15:19.626Z,101511.75
2023-04-09T23:17:46.073Z,101471.78
2023-04-09T23:20:14.684Z,101523.19
2023-04-09T23:22:41.944Z,101504.94
2023-04-09T23:25:08.738Z,101452.88
2023-04-09T23:27:35.140Z,101505.84
2023-04-09T23:30:01.484Z,101481.41
2023-04-09T23:32:27.958Z,101485.22
2023-04-09T23:34:54.390Z,101488.78
2023-04-09T23:37:20.740Z,101480.25
2023-04-09T23:39:48.164Z,101474.19
2023-04-09T23:42:14.614Z,101462.97
2023-04-09T23:44:41.303Z,101444.00
2023-04-09T23:47:07.673Z,101476.75
2023-04-09T23:49:34.092Z,101377.75
2023-04-09T23:52:00.473Z,101460.97
2023-04-09T23:54:26.974Z,101427.97
2023-04-09T23:56:53.417Z,101367.38
2023-04-09T23:59:19.800Z,101441.97
